sensor_id;sensor_type;location;lat;lon;timestamp;P1;durP1;ratioP1;P2;durP2;ratioP2
5678;SDS011;2862;52.560;13.566;2023-12-20T00:09:06;18.30;;;4.70;;
5678;SDS011;2862;52.560;13.566;2023-12-20T00:19:10;17.43;;;4.93;;
5678;SDS011;2862;52.560;13.566;2023-12-20T00:29:13;18.03;;;4.37;;
5678;SDS011;2862;52.560;13.566;2023-12-20T00:39:18;17.30;;;4.70;;
5678;SDS011;2862;52.560;13.566;2023-12-20T00:49:20;17.60;;;4.47;;
5678;SDS011;2862;52.560;13.566;2023-12-20T00:59:25;22.63;;;7.10;;
5678;SDS011;2862;52.560;13.566;2023-12-20T01:09:28;17.30;;;4.60;;
5678;SDS011;2862;52.560;13.566;2023-12-20T01:19:32;18.17;;;4.90;;
5678;SDS011;2862;52.560;13.566;2023-12-20T01:29:35;18.23;;;5.77;;
5678;SDS011;2862;52.560;13.566;2023-12-20T01:39:40;19.23;;;5.80;;
5678;SDS011;2862;52.560;13.566;2023-12-20T01:49:43;19.60;;;5.67;;
5678;SDS011;2862;52.560;13.566;2023-12-20T01:59:48;17.00;;;3.97;;
5678;SDS011;2862;52.560;13.566;2023-12-20T02:09:51;19.50;;;3.20;;
5678;SDS011;2862;52.560;13.566;2023-12-20T02:19:56;20.13;;;4.00;;
5678;SDS011;2862;52.560;13.566;2023-12-20T02:30:00;16.27;;;3.70;;
5678;SDS011;2862;52.560;13.566;2023-12-20T02:40:05;15.27;;;2.77;;
5678;SDS011;2862;52.560;13.566;2023-12-20T02:50:11;14.10;;;2.30;;
5678;SDS011;2862;52.560;13.566;2023-12-20T03:00:14;13.83;;;1.20;;
5678;SDS011;2862;52.560;13.566;2023-12-20T03:10:19;13.47;;;1.37;;
5678;SDS011;2862;52.560;13.566;2023-12-20T03:20:23;16.77;;;1.40;;
5678;SDS011;2862;52.560;13.566;2023-12-20T03:30:29;17.87;;;0.83;;
5678;SDS011;2862;52.560;13.566;2023-12-20T03:40:32;10.30;;;0.40;;
5678;SDS011;2862;52.560;13.566;2023-12-20T03:50:36;16.90;;;0.80;;
5678;SDS011;2862;52.560;13.566;2023-12-20T04:00:39;15.00;;;0.70;;
5678;SDS011;2862;52.560;13.566;2023-12-20T04:10:43;16.07;;;0.70;;
5678;SDS011;2862;52.560;13.566;2023-12-20T04:20:46;14.33;;;0.50;;
5678;SDS011;2862;52.560;13.566;2023-12-20T04:30:51;17.07;;;0.40;;
5678;SDS011;2862;52.560;13.566;2023-12-20T04:40:53;13.70;;;0.70;;
5678;SDS011;2862;52.560;13.566;2023-12-20T04:50:58;31.83;;;0.90;;
5678;SDS011;2862;52.560;13.566;2023-12-20T05:01:01;22.73;;;0.70;;
5678;SDS011;2862;52.560;13.566;2023-12-20T05:11:07;46.23;;;6.17;;
5678;SDS011;2862;52.560;13.566;2023-12-20T05:21:10;24.53;;;1.70;;
5678;SDS011;2862;52.560;13.566;2023-12-20T05:31:15;18.30;;;0.83;;
5678;SDS011;2862;52.560;13.566;2023-12-20T05:41:18;13.70;;;0.80;;
5678;SDS011;2862;52.560;13.566;2023-12-20T05:51:22;21.10;;;1.27;;
5678;SDS011;2862;52.560;13.566;2023-12-20T06:12:19;23.07;;;1.50;;
5678;SDS011;2862;52.560;13.566;2023-12-20T06:22:22;19.37;;;0.63;;
5678;SDS011;2862;52.560;13.566;2023-12-20T06:32:27;24.63;;;2.73;;
5678;SDS011;2862;52.560;13.566;2023-12-20T06:42:30;20.67;;;0.77;;
5678;SDS011;2862;52.560;13.566;2023-12-20T06:52:36;25.07;;;0.60;;
5678;SDS011;2862;52.560;13.566;2023-12-20T07:02:39;16.53;;;0.60;;
5678;SDS011;2862;52.560;13.566;2023-12-20T07:12:44;24.03;;;1.10;;
5678;SDS011;2862;52.560;13.566;2023-12-20T07:22:46;28.13;;;1.70;;
5678;SDS011;2862;52.560;13.566;2023-12-20T07:32:51;32.97;;;1.67;;
5678;SDS011;2862;52.560;13.566;2023-12-20T07:42:54;16.50;;;0.73;;
5678;SDS011;2862;52.560;13.566;2023-12-20T07:52:59;19.70;;;0.80;;
5678;SDS011;2862;52.560;13.566;2023-12-20T08:03:02;16.50;;;1.47;;
5678;SDS011;2862;52.560;13.566;2023-12-20T08:13:07;19.90;;;1.23;;
5678;SDS011;2862;52.560;13.566;2023-12-20T08:23:10;17.43;;;0.60;;
5678;SDS011;2862;52.560;13.566;2023-12-20T08:33:14;20.93;;;0.70;;
5678;SDS011;2862;52.560;13.566;2023-12-20T08:43:17;14.87;;;1.13;;
5678;SDS011;2862;52.560;13.566;2023-12-20T08:53:21;19.23;;;0.87;;
5678;SDS011;2862;52.560;13.566;2023-12-20T09:03:25;19.03;;;0.97;;
5678;SDS011;2862;52.560;13.566;2023-12-20T09:13:29;16.80;;;1.50;;
5678;SDS011;2862;52.560;13.566;2023-12-20T09:23:33;28.67;;;1.00;;
5678;SDS011;2862;52.560;13.566;2023-12-20T09:33:37;20.57;;;2.50;;
5678;SDS011;2862;52.560;13.566;2023-12-20T09:43:41;23.20;;;0.47;;
5678;SDS011;2862;52.560;13.566;2023-12-20T09:53:46;16.30;;;0.47;;
5678;SDS011;2862;52.560;13.566;2023-12-20T10:03:51;21.80;;;0.60;;
5678;SDS011;2862;52.560;13.566;2023-12-20T10:14:00;17.47;;;0.80;;
5678;SDS011;2862;52.560;13.566;2023-12-20T10:24:04;25.43;;;1.57;;
5678;SDS011;2862;52.560;13.566;2023-12-20T10:34:08;34.47;;;0.90;;
5678;SDS011;2862;52.560;13.566;2023-12-20T10:44:11;33.67;;;0.90;;
5678;SDS011;2862;52.560;13.566;2023-12-20T10:54:17;23.80;;;0.90;;
5678;SDS011;2862;52.560;13.566;2023-12-20T11:04:21;23.50;;;0.83;;
5678;SDS011;2862;52.560;13.566;2023-12-20T11:14:31;22.90;;;1.03;;
5678;SDS011;2862;52.560;13.566;2023-12-20T11:24:44;28.13;;;1.03;;
5678;SDS011;2862;52.560;13.566;2023-12-20T11:34:50;31.73;;;1.80;;
5678;SDS011;2862;52.560;13.566;2023-12-20T11:44:53;21.67;;;1.17;;
5678;SDS011;2862;52.560;13.566;2023-12-20T11:55:00;21.73;;;1.93;;
5678;SDS011;2862;52.560;13.566;2023-12-20T12:05:03;18.90;;;1.00;;
5678;SDS011;2862;52.560;13.566;2023-12-20T12:15:08;19.50;;;1.33;;
5678;SDS011;2862;52.560;13.566;2023-12-20T12:25:12;15.83;;;1.03;;
5678;SDS011;2862;52.560;13.566;2023-12-20T12:35:17;16.93;;;0.80;;
5678;SDS011;2862;52.560;13.566;2023-12-20T12:45:21;18.93;;;0.90;;
5678;SDS011;2862;52.560;13.566;2023-12-20T12:55:25;19.20;;;1.20;;
5678;SDS011;2862;52.560;13.566;2023-12-20T13:05:28;22.17;;;1.50;;
5678;SDS011;2862;52.560;13.566;2023-12-20T13:15:35;18.33;;;1.17;;
5678;SDS011;2862;52.560;13.566;2023-12-20T13:25:38;17.83;;;1.50;;
5678;SDS011;2862;52.560;13.566;2023-12-20T13:35:43;17.47;;;0.90;;
5678;SDS011;2862;52.560;13.566;2023-12-20T13:45:46;12.67;;;0.40;;
5678;SDS011;2862;52.560;13.566;2023-12-20T13:55:51;12.70;;;0.30;;
5678;SDS011;2862;52.560;13.566;2023-12-20T14:05:54;10.20;;;0.30;;
5678;SDS011;2862;52.560;13.566;2023-12-20T14:15:59;10.30;;;0.40;;
5678;SDS011;2862;52.560;13.566;2023-12-20T14:26:02;12.47;;;0.30;;
5678;SDS011;2862;52.560;13.566;2023-12-20T14:36:07;11.10;;;0.30;;
5678;SDS011;2862;52.560;13.566;2023-12-20T14:46:10;12.20;;;0.20;;
5678;SDS011;2862;52.560;13.566;2023-12-20T14:56:14;9.93;;;0.20;;
5678;SDS011;2862;52.560;13.566;2023-12-20T15:06:17;14.93;;;0.20;;
5678;SDS011;2862;52.560;13.566;2023-12-20T15:16:23;14.33;;;0.30;;
5678;SDS011;2862;52.560;13.566;2023-12-20T15:26:29;11.77;;;0.40;;
5678;SDS011;2862;52.560;13.566;2023-12-20T15:36:38;13.80;;;0.60;;
5678;SDS011;2862;52.560;13.566;2023-12-20T15:46:47;18.13;;;0.30;;
5678;SDS011;2862;52.560;13.566;2023-12-20T15:56:51;12.33;;;0.40;;
5678;SDS011;2862;52.560;13.566;2023-12-20T16:06:54;13.40;;;0.60;;
5678;SDS011;2862;52.560;13.566;2023-12-20T16:16:59;12.97;;;0.30;;
5678;SDS011;2862;52.560;13.566;2023-12-20T16:27:02;15.37;;;0.40;;
5678;SDS011;2862;52.560;13.566;2023-12-20T16:37:06;13.43;;;1.27;;
5678;SDS011;2862;52.560;13.566;2023-12-20T16:47:09;18.43;;;0.50;;
5678;SDS011;2862;52.560;13.566;2023-12-20T16:57:13;13.63;;;0.30;;
5678;SDS011;2862;52.560;13.566;2023-12-20T17:07:16;15.30;;;0.30;;
5678;SDS011;2862;52.560;13.566;2023-12-20T17:17:20;16.83;;;0.37;;
5678;SDS011;2862;52.560;13.566;2023-12-20T17:27:23;12.90;;;0.40;;
5678;SDS011;2862;52.560;13.566;2023-12-20T17:37:28;15.03;;;0.50;;
5678;SDS011;2862;52.560;13.566;2023-12-20T17:47:31;27.27;;;0.50;;
5678;SDS011;2862;52.560;13.566;2023-12-20T17:57:35;12.90;;;0.50;;
5678;SDS011;2862;52.560;13.566;2023-12-20T18:07:38;20.43;;;0.70;;
5678;SDS011;2862;52.560;13.566;2023-12-20T18:17:43;19.00;;;0.70;;
5678;SDS011;2862;52.560;13.566;2023-12-20T18:27:46;18.40;;;0.50;;
5678;SDS011;2862;52.560;13.566;2023-12-20T18:37:50;16.20;;;0.57;;
5678;SDS011;2862;52.560;13.566;2023-12-20T18:47:53;16.83;;;0.50;;
5678;SDS011;2862;52.560;13.566;2023-12-20T18:57:57;18.90;;;0.67;;
5678;SDS011;2862;52.560;13.566;2023-12-20T19:08:00;23.37;;;0.40;;
5678;SDS011;2862;52.560;13.566;2023-12-20T19:18:05;16.17;;;0.50;;
5678;SDS011;2862;52.560;13.566;2023-12-20T19:28:09;16.77;;;1.07;;
5678;SDS011;2862;52.560;13.566;2023-12-20T19:38:13;23.27;;;0.90;;
5678;SDS011;2862;52.560;13.566;2023-12-20T19:48:18;17.17;;;0.60;;
5678;SDS011;2862;52.560;13.566;2023-12-20T19:58:22;21.27;;;1.10;;
5678;SDS011;2862;52.560;13.566;2023-12-20T20:08:24;22.63;;;1.17;;
5678;SDS011;2862;52.560;13.566;2023-12-20T20:18:29;18.30;;;0.50;;
5678;SDS011;2862;52.560;13.566;2023-12-20T20:28:32;18.07;;;0.53;;
5678;SDS011;2862;52.560;13.566;2023-12-20T20:38:36;17.87;;;0.50;;
5678;SDS011;2862;52.560;13.566;2023-12-20T20:48:39;16.97;;;1.10;;
5678;SDS011;2862;52.560;13.566;2023-12-20T20:58:45;15.93;;;0.30;;
5678;SDS011;2862;52.560;13.566;2023-12-20T21:08:49;15.10;;;0.50;;
5678;SDS011;2862;52.560;13.566;2023-12-20T21:18:53;18.70;;;0.80;;
5678;SDS011;2862;52.560;13.566;2023-12-20T21:28:56;17.10;;;0.40;;
5678;SDS011;2862;52.560;13.566;2023-12-20T21:39:00;11.10;;;0.30;;
5678;SDS011;2862;52.560;13.566;2023-12-20T21:49:03;10.10;;;0.30;;
5678;SDS011;2862;52.560;13.566;2023-12-20T21:59:08;19.53;;;0.60;;
5678;SDS011;2862;52.560;13.566;2023-12-20T22:09:11;20.30;;;0.70;;
5678;SDS011;2862;52.560;13.566;2023-12-20T22:19:15;12.70;;;0.40;;
5678;SDS011;2862;52.560;13.566;2023-12-20T22:29:19;15.70;;;0.80;;
5678;SDS011;2862;52.560;13.566;2023-12-20T22:39:23;13.00;;;0.60;;
5678;SDS011;2862;52.560;13.566;2023-12-20T22:49:26;12.03;;;0.50;;
5678;SDS011;2862;52.560;13.566;2023-12-20T22:59:30;13.43;;;0.30;;
5678;SDS011;2862;52.560;13.566;2023-12-20T23:09:33;13.20;;;0.30;;
5678;SDS011;2862;52.560;13.566;2023-12-20T23:19:38;14.03;;;0.30;;
5678;SDS011;2862;52.560;13.566;2023-12-20T23:29:41;12.83;;;0.40;;
5678;SDS011;2862;52.560;13.566;2023-12-20T23:39:45;17.10;;;0.40;;
5678;SDS011;2862;52.560;13.566;2023-12-20T23:49:48;10.23;;;0.40;;
5678;SDS011;2862;52.560;13.566;2023-12-20T23:59:52;11.30;;;0.40;;
